createdAt,value
2023-02-13T00:00:28.052Z,8.50
2023-02-13T00:02:52.085Z,8.50
2023-02-13T00:05:15.637Z,8.50
2023-02-13T00:07:39.032Z,8.60
2023-02-13T00:10:02.339Z,8.50
2023-02-13T00:12:26.953Z,8.50
2023-02-13T00:14:50.325Z,8.50
2023-02-13T00:17:13.693Z,8.50
2023-02-13T00:19:37.115Z,8.50
2023-02-13T00:22:00.600Z,8.50
2023-02-13T00:24:24.229Z,8.50
2023-02-13T00:26:47.462Z,8.50
2023-02-13T00:29:12.213Z,8.50
2023-02-13T00:31:35.550Z,8.50
2023-02-13T00:33:58.930Z,8.50
2023-02-13T00:36:25.190Z,8.50
2023-02-13T00:38:48.979Z,8.50
2023-02-13T00:41:12.550Z,8.50
2023-02-13T00:43:36.868Z,8.50
2023-02-13T00:46:02.022Z,8.50
2023-02-13T00:48:25.732Z,8.50
2023-02-13T00:50:49.345Z,8.50
2023-02-13T00:53:12.764Z,8.50
2023-02-13T00:55:36.247Z,8.50
2023-02-13T00:57:59.627Z,8.50
2023-02-13T01:00:23.225Z,8.40
2023-02-13T01:02:48.007Z,8.50
2023-02-13T01:05:11.291Z,8.50
2023-02-13T01:07:34.641Z,8.40
2023-02-13T01:09:57.976Z,8.50
2023-02-13T01:12:23.844Z,8.40
2023-02-13T01:14:47.106Z,8.50
2023-02-13T01:17:10.363Z,8.50
2023-02-13T01:19:35.576Z,8.50
2023-02-13T01:21:58.845Z,8.40
2023-02-13T01:24:22.208Z,8.40
2023-02-13T01:26:46.053Z,8.40
2023-02-13T01:29:09.728Z,8.50
2023-02-13T01:31:33.158Z,8.50
2023-02-13T01:33:58.781Z,8.40
2023-02-13T01:36:23.476Z,8.30
2023-02-13T01:38:46.787Z,8.30
2023-02-13T01:41:10.458Z,8.20
2023-02-13T01:43:53.482Z,8.20
2023-02-13T01:46:22.463Z,8.20
2023-02-13T01:48:46.348Z,8.20
2023-02-13T01:51:14.783Z,8.20
2023-02-13T01:53:45.938Z,8.20
2023-02-13T01:56:15.854Z,8.10
2023-02-13T01:58:41.403Z,8.10
2023-02-13T02:01:05.538Z,8.10
2023-02-13T02:03:34.126Z,8.10
2023-02-13T02:06:03.812Z,8.00
2023-02-13T02:08:28.367Z,8.00
2023-02-13T02:10:53.557Z,8.00
2023-02-13T02:13:19.905Z,8.00
2023-02-13T02:15:44.321Z,8.00
2023-02-13T02:18:15.468Z,8.00
2023-02-13T02:21:20.746Z,8.00
2023-02-13T02:24:18.998Z,8.00
2023-02-13T02:27:18.527Z,8.00
2023-02-13T02:30:27.655Z,7.90
2023-02-13T02:33:08.829Z,7.90
2023-02-13T02:35:44.691Z,7.90
2023-02-13T02:38:23.626Z,7.90
2023-02-13T02:41:01.907Z,7.90
2023-02-13T02:43:45.814Z,7.80
2023-02-13T02:46:18.888Z,7.90
2023-02-13T02:49:09.385Z,7.90
2023-02-13T02:51:47.707Z,8.00
2023-02-13T02:54:34.279Z,8.00
2023-02-13T02:57:02.360Z,8.00
2023-02-13T02:59:46.007Z,8.00
2023-02-13T03:02:34.597Z,7.90
2023-02-13T03:05:16.496Z,7.90
2023-02-13T03:07:39.888Z,7.90
2023-02-13T03:10:23.530Z,7.90
2023-02-13T03:13:10.838Z,7.90
2023-02-13T03:15:57.571Z,7.90
2023-02-13T03:18:38.341Z,8.00
2023-02-13T03:21:35.484Z,8.00
2023-02-13T03:24:06.460Z,8.00
2023-02-13T03:26:50.144Z,8.00
2023-02-13T03:29:42.821Z,8.00
2023-02-13T03:32:19.183Z,7.90
2023-02-13T03:35:11.373Z,8.00
2023-02-13T03:37:56.110Z,7.90
2023-02-13T03:40:24.885Z,7.90
2023-02-13T03:42:54.844Z,7.90
2023-02-13T03:45:41.748Z,7.90
2023-02-13T03:48:30.708Z,7.90
2023-02-13T03:50:53.156Z,7.80
2023-02-13T03:53:18.230Z,7.80
2023-02-13T03:56:03.930Z,7.80
2023-02-13T03:58:48.538Z,7.80
2023-02-13T04:01:16.907Z,7.80
2023-02-13T04:03:49.630Z,7.70
2023-02-13T04:06:18.063Z,7.70
2023-02-13T04:08:42.952Z,7.70
2023-02-13T04:11:13.730Z,7.70
2023-02-13T04:13:43.272Z,7.70
2023-02-13T04:16:12.749Z,7.60
2023-02-13T04:18:37.207Z,7.60
2023-02-13T04:21:04.079Z,7.60
2023-02-13T04:23:27.451Z,7.60
2023-02-13T04:25:55.476Z,7.60
2023-02-13T04:28:18.912Z,7.50
2023-02-13T04:30:42.443Z,7.50
2023-02-13T04:33:05.917Z,7.50
2023-02-13T04:35:29.625Z,7.50
2023-02-13T04:37:53.414Z,7.50
2023-02-13T04:40:16.886Z,7.50
2023-02-13T04:42:41.604Z,7.50
2023-02-13T04:45:05.651Z,7.40
2023-02-13T04:47:29.030Z,7.40
2023-02-13T04:49:52.367Z,7.40
2023-02-13T04:52:16.356Z,7.40
2023-02-13T04:54:39.648Z,7.30
2023-02-13T04:57:02.973Z,7.30
2023-02-13T04:59:27.603Z,7.30
2023-02-13T05:01:51.320Z,7.20
2023-02-13T05:04:16.351Z,7.20
2023-02-13T05:06:39.723Z,7.30
2023-02-13T05:09:03.035Z,7.20
2023-02-13T05:11:26.604Z,7.30
2023-02-13T05:13:49.894Z,7.20
2023-02-13T05:16:14.725Z,7.10
2023-02-13T05:18:38.003Z,7.10
2023-02-13T05:21:19.077Z,7.10
2023-02-13T05:23:42.482Z,7.00
2023-02-13T05:26:06.008Z,7.00
2023-02-13T05:28:46.902Z,7.00
2023-02-13T05:31:10.358Z,6.90
2023-02-13T05:33:35.109Z,6.80
2023-02-13T05:35:58.386Z,6.80
2023-02-13T05:38:21.636Z,6.80
2023-02-13T05:40:45.166Z,6.70
2023-02-13T05:43:08.407Z,6.70
2023-02-13T05:45:31.699Z,6.70
2023-02-13T05:47:55.108Z,6.60
2023-02-13T05:50:20.173Z,6.50
2023-02-13T05:52:43.445Z,6.50
2023-02-13T05:55:08.187Z,6.50
2023-02-13T05:57:32.427Z,6.50
2023-02-13T05:59:57.129Z,6.50
2023-02-13T06:02:20.379Z,6.50
2023-02-13T06:04:43.679Z,6.40
2023-02-13T06:07:08.552Z,6.40
2023-02-13T06:09:31.934Z,6.30
2023-02-13T06:11:55.197Z,6.30
2023-02-13T06:14:18.579Z,6.20
2023-02-13T06:16:42.186Z,6.20
2023-02-13T06:19:05.520Z,6.20
2023-02-13T06:21:29.016Z,6.20
2023-02-13T06:23:53.801Z,6.10
2023-02-13T06:26:17.066Z,6.10
2023-02-13T06:28:40.506Z,6.00
2023-02-13T06:31:03.929Z,6.10
2023-02-13T06:33:27.409Z,6.10
2023-02-13T06:35:50.761Z,6.00
2023-02-13T06:38:13.994Z,6.00
2023-02-13T06:40:38.657Z,6.00
2023-02-13T06:43:02.021Z,6.00
2023-02-13T06:45:25.295Z,6.00
2023-02-13T06:47:50.294Z,5.90
2023-02-13T06:50:15.828Z,5.90
2023-02-13T06:52:39.211Z,5.90
2023-02-13T06:55:02.541Z,5.80
2023-02-13T06:57:27.298Z,5.90
2023-02-13T06:59:50.583Z,5.90
2023-02-13T07:02:14.585Z,5.90
2023-02-13T07:04:38.336Z,5.80
2023-02-13T07:07:01.664Z,5.80
2023-02-13T07:09:25.269Z,5.80
2023-02-13T07:11:48.540Z,5.80
2023-02-13T07:14:13.259Z,5.80
2023-02-13T07:16:37.441Z,5.80
2023-02-13T07:19:00.800Z,5.90
2023-02-13T07:21:24.046Z,5.90
2023-02-13T07:23:47.359Z,6.00
2023-02-13T07:26:12.073Z,6.00
2023-02-13T07:28:35.452Z,6.00
2023-02-13T07:31:05.688Z,6.20
2023-02-13T07:33:29.109Z,6.20
2023-02-13T07:35:53.813Z,6.20
2023-02-13T07:38:18.395Z,6.30
2023-02-13T07:40:41.659Z,6.30
2023-02-13T07:43:05.025Z,6.50
2023-02-13T07:45:28.406Z,6.50
2023-02-13T07:47:53.082Z,6.50
2023-02-13T07:50:17.779Z,6.50
2023-02-13T07:52:41.105Z,6.70
2023-02-13T07:55:04.518Z,6.80
2023-02-13T07:57:27.810Z,6.80
2023-02-13T07:59:51.551Z,6.80
2023-02-13T08:02:16.408Z,7.00
2023-02-13T08:04:41.187Z,7.20
2023-02-13T08:07:04.573Z,7.30
2023-02-13T08:09:45.414Z,7.50
2023-02-13T08:12:11.521Z,7.50
2023-02-13T08:14:35.401Z,7.60
2023-02-13T08:17:01.467Z,7.70
2023-02-13T08:19:24.768Z,7.60
2023-02-13T08:21:49.457Z,7.80
2023-02-13T08:24:13.157Z,8.00
2023-02-13T08:26:36.849Z,7.90
2023-02-13T08:29:00.432Z,8.10
2023-02-13T08:31:24.080Z,8.10
2023-02-13T08:33:47.362Z,8.10
2023-02-13T08:36:11.220Z,8.20
2023-02-13T08:38:36.231Z,8.00
2023-02-13T08:40:59.722Z,8.30
2023-02-13T08:43:23.205Z,8.30
2023-02-13T08:45:46.551Z,8.40
2023-02-13T08:48:09.962Z,8.50
2023-02-13T08:50:35.080Z,8.40
2023-02-13T08:53:00.821Z,8.40
2023-02-13T08:55:25.850Z,8.60
2023-02-13T08:57:49.191Z,8.50
2023-02-13T09:00:13.737Z,8.50
2023-02-13T09:02:37.322Z,8.60
2023-02-13T09:05:00.840Z,8.80
2023-02-13T09:07:24.471Z,8.90
2023-02-13T09:09:47.778Z,9.00
2023-02-13T09:12:13.551Z,8.90
2023-02-13T09:14:39.211Z,9.00
2023-02-13T09:17:03.041Z,9.10
2023-02-13T09:19:26.394Z,9.10
2023-02-13T09:21:50.145Z,9.20
2023-02-13T09:24:13.572Z,9.20
2023-02-13T09:26:37.219Z,9.20
2023-02-13T09:29:01.952Z,9.00
2023-02-13T09:31:26.718Z,9.10
2023-02-13T09:33:51.747Z,9.10
2023-02-13T09:36:20.123Z,9.40
2023-02-13T09:38:44.997Z,9.50
2023-02-13T09:41:12.518Z,9.40
2023-02-13T09:43:43.974Z,9.40
2023-02-13T09:46:14.364Z,9.50
2023-02-13T09:48:41.937Z,9.50
2023-02-13T09:51:07.007Z,9.80
2023-02-13T09:53:33.402Z,10.00
2023-02-13T09:56:07.179Z,9.90
2023-02-13T09:58:45.623Z,10.00
2023-02-13T10:01:21.170Z,9.90
2023-02-13T10:03:50.054Z,10.00
2023-02-13T10:06:22.137Z,10.00
2023-02-13T10:09:02.990Z,9.70
2023-02-13T10:12:02.346Z,10.00
2023-02-13T10:14:33.769Z,10.10
2023-02-13T10:17:03.036Z,10.40
2023-02-13T10:19:37.228Z,10.30
2023-02-13T10:22:06.661Z,10.50
2023-02-13T10:24:36.593Z,10.70
2023-02-13T10:27:06.465Z,10.80
2023-02-13T10:29:58.786Z,10.70
2023-02-13T10:32:31.314Z,10.70
2023-02-13T10:34:56.484Z,10.40
2023-02-13T10:37:23.047Z,10.80
2023-02-13T10:39:51.434Z,11.00
2023-02-13T10:42:26.083Z,10.90
2023-02-13T10:45:06.503Z,10.70
2023-02-13T10:47:59.223Z,10.80
2023-02-13T10:50:29.392Z,11.00
2023-02-13T10:53:05.245Z,11.00
2023-02-13T10:55:58.433Z,11.00
2023-02-13T10:58:31.267Z,11.00
2023-02-13T11:01:01.412Z,10.90
2023-02-13T11:03:28.798Z,11.30
2023-02-13T11:05:53.800Z,11.20
2023-02-13T11:08:22.433Z,11.20
2023-02-13T11:10:45.733Z,11.30
2023-02-13T11:13:19.470Z,11.30
2023-02-13T11:15:42.937Z,11.10
2023-02-13T11:18:19.313Z,10.90
2023-02-13T11:20:48.151Z,11.40
2023-02-13T11:23:35.461Z,11.50
2023-02-13T11:26:01.944Z,11.30
2023-02-13T11:28:25.588Z,11.40
2023-02-13T11:30:49.257Z,11.60
2023-02-13T11:33:25.972Z,11.50
2023-02-13T11:35:50.931Z,11.60
2023-02-13T11:38:24.025Z,11.60
2023-02-13T11:40:50.540Z,11.70
2023-02-13T11:43:21.361Z,11.90
2023-02-13T11:45:45.200Z,11.80
2023-02-13T11:48:21.364Z,12.00
2023-02-13T11:50:46.248Z,11.90
2023-02-13T11:53:21.146Z,12.00
2023-02-13T11:56:05.612Z,11.90
2023-02-13T11:58:31.282Z,12.00
2023-02-13T12:01:12.056Z,11.90
2023-02-13T12:03:35.391Z,12.00
2023-02-13T12:06:05.969Z,12.10
2023-02-13T12:08:31.565Z,12.30
2023-02-13T12:10:57.523Z,12.10
2023-02-13T12:13:29.849Z,12.00
2023-02-13T12:16:01.273Z,12.00
2023-02-13T12:18:35.111Z,12.10
2023-02-13T12:21:07.254Z,12.00
2023-02-13T12:23:41.738Z,12.50
2023-02-13T12:26:22.573Z,12.40
2023-02-13T12:29:28.704Z,12.50
2023-02-13T12:32:06.215Z,12.40
2023-02-13T12:35:09.394Z,12.70
2023-02-13T12:37:57.911Z,12.60
2023-02-13T12:40:40.972Z,12.50
2023-02-13T12:43:37.535Z,12.60
2023-02-13T12:46:06.445Z,12.60
2023-02-13T12:48:41.811Z,12.70
2023-02-13T12:51:25.278Z,12.90
2023-02-13T12:54:14.185Z,12.80
2023-02-13T12:57:04.827Z,13.00
2023-02-13T12:59:40.920Z,13.30
2023-02-13T13:02:30.364Z,13.00
2023-02-13T13:05:13.613Z,13.10
2023-02-13T13:07:57.269Z,13.10
2023-02-13T13:10:36.985Z,13.10
2023-02-13T13:13:11.831Z,13.20
2023-02-13T13:15:43.959Z,13.10
2023-02-13T13:18:28.438Z,13.10
2023-02-13T13:21:07.702Z,13.40
2023-02-13T13:23:37.427Z,13.30
2023-02-13T13:26:13.731Z,13.30
2023-02-13T13:28:42.943Z,13.30
2023-02-13T13:31:07.193Z,13.20
2023-02-13T13:33:30.770Z,13.30
2023-02-13T13:36:02.970Z,13.30
2023-02-13T13:38:40.322Z,13.10
2023-02-13T13:41:13.871Z,13.10
2023-02-13T13:43:55.393Z,13.00
2023-02-13T13:46:30.269Z,13.10
2023-02-13T13:49:15.972Z,13.00
2023-02-13T13:51:39.482Z,13.00
2023-02-13T13:54:27.240Z,13.10
2023-02-13T13:57:12.446Z,13.00
2023-02-13T14:00:25.201Z,13.00
2023-02-13T14:02:50.835Z,13.10
2023-02-13T14:05:30.259Z,13.00
2023-02-13T14:07:56.556Z,13.00
2023-02-13T14:11:04.710Z,13.00
2023-02-13T14:13:34.238Z,13.20
2023-02-13T14:15:59.065Z,13.20
2023-02-13T14:18:24.241Z,13.10
2023-02-13T14:20:53.930Z,13.00
2023-02-13T14:23:29.486Z,13.10
2023-02-13T14:26:11.517Z,13.10
2023-02-13T14:28:34.882Z,13.10
2023-02-13T14:31:16.884Z,13.00
2023-02-13T14:33:40.338Z,13.00
2023-02-13T14:36:08.667Z,13.10
2023-02-13T14:38:32.455Z,13.10
2023-02-13T14:40:56.951Z,13.00
2023-02-13T14:43:39.049Z,13.10
2023-02-13T14:46:20.729Z,13.20
2023-02-13T14:48:50.483Z,13.00
2023-02-13T14:51:28.771Z,13.10
2023-02-13T14:53:56.705Z,13.10
2023-02-13T14:56:23.604Z,13.10
2023-02-13T14:58:52.968Z,13.10
2023-02-13T15:01:27.689Z,13.10
2023-02-13T15:03:59.969Z,13.20
2023-02-13T15:06:28.963Z,13.30
2023-02-13T15:08:54.504Z,13.60
2023-02-13T15:11:37.633Z,13.70
2023-02-13T15:14:16.745Z,13.70
2023-02-13T15:16:41.425Z,13.60
2023-02-13T15:19:04.960Z,13.80
2023-02-13T15:21:33.157Z,13.60
2023-02-13T15:23:58.052Z,13.50
2023-02-13T15:26:24.676Z,13.60
2023-02-13T15:29:01.521Z,13.60
2023-02-13T15:31:26.163Z,13.40
2023-02-13T15:33:53.569Z,13.50
2023-02-13T15:36:20.826Z,13.70
2023-02-13T15:38:44.123Z,13.80
2023-02-13T15:41:11.589Z,14.00
2023-02-13T15:43:38.364Z,13.90
2023-02-13T15:46:06.147Z,13.80
2023-02-13T15:48:31.227Z,13.80
2023-02-13T15:50:56.514Z,13.70
2023-02-13T15:53:20.550Z,13.70
2023-02-13T15:55:43.917Z,13.60
2023-02-13T15:58:08.012Z,13.80
2023-02-13T16:00:34.476Z,13.80
2023-02-13T16:03:01.385Z,13.50
2023-02-13T16:05:39.610Z,13.10
2023-02-13T16:08:20.308Z,13.00
2023-02-13T16:10:43.633Z,12.80
2023-02-13T16:13:08.963Z,12.70
2023-02-13T16:15:35.777Z,12.50
2023-02-13T16:18:00.218Z,12.50
2023-02-13T16:20:26.500Z,12.20
2023-02-13T16:22:53.018Z,12.10
2023-02-13T16:25:26.513Z,12.00
2023-02-13T16:27:52.398Z,11.90
2023-02-13T16:30:33.439Z,11.60
2023-02-13T16:33:29.454Z,11.50
2023-02-13T16:35:56.552Z,11.20
2023-02-13T16:38:29.887Z,11.10
2023-02-13T16:40:56.293Z,11.00
2023-02-13T16:43:43.086Z,11.00
2023-02-13T16:46:26.864Z,10.80
2023-02-13T16:49:27.611Z,10.70
2023-02-13T16:51:56.452Z,10.50
2023-02-13T16:54:26.566Z,10.20
2023-02-13T16:56:55.967Z,10.20
2023-02-13T16:59:30.616Z,10.20
2023-02-13T17:02:28.196Z,10.00
2023-02-13T17:04:54.992Z,9.90
2023-02-13T17:07:22.499Z,9.90
2023-02-13T17:09:46.313Z,9.80
2023-02-13T17:12:17.624Z,9.50
2023-02-13T17:14:41.097Z,9.30
2023-02-13T17:17:07.137Z,9.40
2023-02-13T17:19:30.518Z,9.30
2023-02-13T17:21:55.783Z,9.20
2023-02-13T17:24:19.645Z,9.10
2023-02-13T17:26:43.010Z,9.00
2023-02-13T17:29:07.706Z,9.00
2023-02-13T17:31:31.104Z,8.80
2023-02-13T17:33:54.631Z,8.80
2023-02-13T17:36:17.909Z,8.70
2023-02-13T17:38:41.566Z,8.80
2023-02-13T17:41:05.049Z,8.50
2023-02-13T17:43:29.999Z,8.50
2023-02-13T17:45:54.702Z,8.50
2023-02-13T17:48:18.585Z,8.50
2023-02-13T17:50:42.297Z,8.40
2023-02-13T17:53:08.695Z,8.30
2023-02-13T17:55:33.691Z,8.20
2023-02-13T17:57:58.868Z,8.10
2023-02-13T18:00:23.829Z,8.20
2023-02-13T18:02:49.615Z,8.00
2023-02-13T18:05:13.325Z,8.00
2023-02-13T18:07:39.404Z,8.00
2023-02-13T18:10:02.779Z,7.90
2023-02-13T18:12:26.464Z,7.70
2023-02-13T18:14:50.257Z,7.60
2023-02-13T18:17:14.087Z,7.60
2023-02-13T18:19:39.291Z,7.70
2023-02-13T18:22:02.704Z,7.70
2023-02-13T18:24:30.895Z,7.50
2023-02-13T18:26:56.032Z,7.40
2023-02-13T18:29:19.606Z,7.40
2023-02-13T18:31:43.125Z,7.20
2023-02-13T18:34:06.419Z,7.10
2023-02-13T18:36:31.285Z,7.20
2023-02-13T18:38:54.714Z,6.90
2023-02-13T18:41:18.088Z,7.00
2023-02-13T18:43:42.317Z,7.00
2023-02-13T18:46:06.098Z,7.10
2023-02-13T18:48:30.885Z,7.00
2023-02-13T18:50:54.310Z,6.90
2023-02-13T18:53:18.989Z,6.90
2023-02-13T18:55:43.473Z,6.80
2023-02-13T18:58:07.181Z,6.90
2023-02-13T19:00:30.845Z,6.70
2023-02-13T19:02:54.721Z,6.60
2023-02-13T19:05:18.288Z,6.60
2023-02-13T19:07:41.786Z,6.70
2023-02-13T19:10:07.771Z,6.50
2023-02-13T19:12:31.604Z,6.50
2023-02-13T19:14:55.224Z,6.50
2023-02-13T19:17:18.670Z,6.50
2023-02-13T19:19:41.992Z,6.50
2023-02-13T19:22:05.637Z,6.40
2023-02-13T19:24:29.354Z,6.20
2023-02-13T19:26:54.432Z,6.20
2023-02-13T19:29:17.829Z,6.00
2023-02-13T19:31:41.336Z,6.00
2023-02-13T19:34:06.602Z,6.10
2023-02-13T19:36:31.066Z,6.00
2023-02-13T19:38:57.187Z,6.10
2023-02-13T19:41:20.626Z,6.00
2023-02-13T19:43:50.842Z,5.90
2023-02-13T19:46:14.947Z,5.90
2023-02-13T19:48:38.441Z,5.80
2023-02-13T19:51:06.990Z,5.80
2023-02-13T19:53:30.441Z,5.80
2023-02-13T19:56:00.730Z,5.80
2023-02-13T19:58:24.272Z,5.70
2023-02-13T20:00:49.164Z,5.60
2023-02-13T20:03:12.588Z,5.70
2023-02-13T20:05:41.170Z,5.60
2023-02-13T20:08:04.726Z,5.60
2023-02-13T20:10:28.108Z,5.50
2023-02-13T20:12:54.376Z,5.50
2023-02-13T20:15:17.877Z,5.50
2023-02-13T20:17:42.852Z,5.50
2023-02-13T20:20:08.198Z,5.50
2023-02-13T20:22:32.020Z,5.40
2023-02-13T20:24:55.726Z,5.30
2023-02-13T20:27:19.214Z,5.30
2023-02-13T20:29:43.238Z,5.20
2023-02-13T20:32:07.098Z,5.20
2023-02-13T20:34:44.410Z,5.10
2023-02-13T20:37:16.370Z,5.00
2023-02-13T20:39:39.790Z,5.00
2023-02-13T20:42:03.136Z,5.00
2023-02-13T20:44:28.163Z,5.00
2023-02-13T20:46:52.029Z,5.00
2023-02-13T20:49:18.834Z,5.00
2023-02-13T20:51:43.511Z,5.00
2023-02-13T20:54:06.959Z,4.90
2023-02-13T20:56:30.445Z,4.90
2023-02-13T20:58:56.605Z,4.80
2023-02-13T21:01:23.546Z,4.70
2023-02-13T21:03:53.406Z,4.70
2023-02-13T21:06:16.785Z,4.80
2023-02-13T21:08:44.499Z,4.70
2023-02-13T21:11:09.330Z,4.60
2023-02-13T21:13:33.786Z,4.60
2023-02-13T21:16:06.297Z,4.50
2023-02-13T21:18:29.760Z,4.50
2023-02-13T21:20:53.168Z,4.60
2023-02-13T21:23:16.420Z,4.90
2023-02-13T21:25:41.028Z,5.00
2023-02-13T21:28:04.331Z,5.00
2023-02-13T21:30:27.790Z,5.00
2023-02-13T21:32:51.061Z,5.00
2023-02-13T21:35:14.521Z,5.20
2023-02-13T21:37:37.786Z,5.40
2023-02-13T21:40:01.459Z,5.50
2023-02-13T21:42:26.380Z,5.50
2023-02-13T21:44:49.690Z,5.60
2023-02-13T21:47:13.182Z,5.60
2023-02-13T21:49:36.822Z,5.80
2023-02-13T21:52:00.201Z,5.90
2023-02-13T21:54:23.595Z,5.80
2023-02-13T21:56:46.982Z,5.70
2023-02-13T21:59:15.316Z,6.00
2023-02-13T22:01:41.253Z,5.90
2023-02-13T22:04:07.994Z,6.00
2023-02-13T22:06:33.994Z,6.00
2023-02-13T22:08:58.556Z,5.90
2023-02-13T22:11:21.820Z,5.70
2023-02-13T22:13:45.111Z,5.60
2023-02-13T22:16:12.832Z,5.60
2023-02-13T22:18:38.277Z,5.60
2023-02-13T22:21:06.504Z,5.50
2023-02-13T22:23:29.850Z,5.20
2023-02-13T22:25:53.105Z,5.30
2023-02-13T22:28:16.670Z,5.30
2023-02-13T22:30:40.229Z,5.20
2023-02-13T22:33:05.245Z,5.20
2023-02-13T22:35:28.496Z,5.10
2023-02-13T22:37:51.703Z,5.10
2023-02-13T22:40:15.351Z,4.90
2023-02-13T22:42:38.658Z,4.90
2023-02-13T22:45:02.199Z,4.80
2023-02-13T22:47:25.504Z,4.80
2023-02-13T22:49:50.558Z,4.70
2023-02-13T22:52:14.298Z,4.60
2023-02-13T22:54:37.864Z,4.50
2023-02-13T22:57:01.130Z,4.50
2023-02-13T22:59:24.908Z,4.50
2023-02-13T23:01:48.452Z,4.50
2023-02-13T23:04:12.589Z,4.40
2023-02-13T23:06:37.289Z,4.30
2023-02-13T23:09:00.527Z,4.30
2023-02-13T23:11:44.419Z,4.30
2023-02-13T23:14:07.761Z,4.20
2023-02-13T23:16:51.699Z,4.30
2023-02-13T23:19:13.975Z,4.30
2023-02-13T23:21:39.152Z,4.40
2023-02-13T23:24:02.508Z,4.40
2023-02-13T23:26:25.906Z,4.50
2023-02-13T23:28:49.165Z,4.70
2023-02-13T23:31:12.584Z,4.70
2023-02-13T23:33:36.055Z,4.60
2023-02-13T23:35:59.462Z,4.50
2023-02-13T23:38:24.901Z,4.40
2023-02-13T23:40:48.349Z,4.50
2023-02-13T23:43:11.688Z,4.40
2023-02-13T23:45:35.015Z,4.30
2023-02-13T23:47:58.400Z,4.30
2023-02-13T23:50:21.771Z,4.40
2023-02-13T23:52:45.084Z,4.30
2023-02-13T23:55:09.898Z,4.30
2023-02-13T23:57:33.149Z,4.40
2023-02-13T23:59:56.427Z,4.40
